Time;durP1;ratioP1;P1;durP2;ratioP2;P2;SDS_P1;SDS_P2;PMS_P1;PMS_P2;Temp;Humidity;BMP_temperature;BMP_pressure;BME280_temperature;BME280_humidity;BME280_pressure;Samples;Min_cycle;Max_cycle;Signal;HPM_P1;HPM_P2
2023/01/19 00:01:18;;;;;;;15.30;3.87;;;;;;;-1.44;90.39;99513.88;5974355;29;20066;-74
2023/01/19 00:04:13;;;;;;;13.48;5.53;;;;;;;-1.41;90.72;99522.28;5981800;29;20130;-74
2023/01/19 00:07:09;;;;;;;11.87;3.83;;;;;;;-1.42;90.04;99528.44;5982317;29;20039;-73
2023/01/19 00:10:04;;;;;;;11.43;4.63;;;;;;;-1.45;91.12;99526.03;5982570;29;20105;-75
2023/01/19 00:13:00;;;;;;;12.18;5.43;;;;;;;-1.38;90.35;99527.31;5981399;29;20383;-73
2023/01/19 00:15:55;;;;;;;9.57;4.57;;;;;;;-1.45;90.57;99520.84;5981887;29;20046;-73
2023/01/19 00:18:51;;;;;;;13.57;5.30;;;;;;;-1.38;90.50;99509.09;5982121;28;20027;-75
2023/01/19 00:21:46;;;;;;;10.82;4.47;;;;;;;-1.34;89.81;99528.78;5980720;28;20117;-73
2023/01/19 00:24:43;;;;;;;9.97;4.83;;;;;;;-1.37;90.69;99521.19;5982149;29;20475;-72
2023/01/19 00:27:38;;;;;;;9.43;3.92;;;;;;;-1.34;90.96;99531.38;5981867;29;20534;-74
2023/01/19 00:30:33;;;;;;;6.73;3.13;;;;;;;-1.33;90.76;99527.00;5981772;29;20035;-73
2023/01/19 00:33:29;;;;;;;6.67;3.30;;;;;;;-1.25;90.43;99527.34;5980168;29;20050;-74
2023/01/19 00:36:24;;;;;;;12.30;4.93;;;;;;;-1.32;89.96;99498.31;5981457;29;20094;-74
2023/01/19 00:39:19;;;;;;;11.70;5.18;;;;;;;-1.26;89.76;99513.50;5981931;29;20023;-72
2023/01/19 00:45:28;;;;;;;11.45;4.43;;;;;;;-1.29;89.97;99531.06;5981309;29;20039;-74
2023/01/19 00:48:23;;;;;;;8.03;4.10;;;;;;;-1.39;90.35;99517.00;5981198;28;20039;-75
2023/01/19 00:51:19;;;;;;;10.67;3.80;;;;;;;-1.31;90.23;99531.19;5981257;29;20503;-73
2023/01/19 00:54:14;;;;;;;10.07;5.33;;;;;;;-1.39;90.13;99538.66;5979995;29;20039;-74
2023/01/19 00:57:09;;;;;;;9.33;4.20;;;;;;;-1.46;91.06;99513.97;5981037;29;20041;-71
2023/01/19 01:00:07;;;;;;;14.17;5.50;;;;;;;-1.42;91.00;99544.03;5980929;29;20475;-72
2023/01/19 01:03:03;;;;;;;15.52;5.65;;;;;;;-1.49;90.89;99532.38;5980408;29;20534;-74
2023/01/19 01:05:59;;;;;;;12.45;4.97;;;;;;;-1.44;91.03;99545.09;5980966;29;20027;-74
2023/01/19 01:08:54;;;;;;;13.38;5.47;;;;;;;-1.60;91.73;99524.44;5980837;29;20306;-73
2023/01/19 01:11:49;;;;;;;13.63;4.53;;;;;;;-1.49;91.21;99537.56;5980404;29;20498;-74
2023/01/19 01:14:44;;;;;;;9.60;3.83;;;;;;;-1.54;91.33;99529.22;5980821;29;20039;-74
2023/01/19 01:17:46;;;;;;;12.97;4.47;;;;;;;-1.51;91.81;99544.63;5980191;29;20027;-74
2023/01/19 01:20:41;;;;;;;6.60;2.97;;;;;;;-1.44;91.42;99560.69;5980573;29;20118;-72
2023/01/19 01:23:36;;;;;;;10.33;4.23;;;;;;;-1.46;91.74;99563.34;5979391;29;20387;-72
2023/01/19 01:26:31;;;;;;;8.83;4.07;;;;;;;-1.54;91.72;99557.81;5980307;29;20043;-72
2023/01/19 01:37:10;;;;;;;11.80;5.28;;;;;;;-1.48;91.65;99548.78;5978670;29;20047;-71
2023/01/19 01:40:06;;;;;;;13.90;5.10;;;;;;;-1.42;91.47;99553.59;5980519;29;20043;-73
2023/01/19 01:43:02;;;;;;;13.80;4.20;;;;;;;-1.37;90.78;99562.78;5979352;29;20267;-74
2023/01/19 01:45:57;;;;;;;11.35;5.15;;;;;;;-1.44;91.93;99561.47;5989062;28;20042;-71
2023/01/19 01:49:02;;;;;;;11.77;5.37;;;;;;;-1.63;91.56;99548.00;5962982;28;20039;-72
2023/01/19 01:51:57;;;;;;;9.70;5.18;;;;;;;-1.53;92.00;99564.69;5979177;29;20046;-72
2023/01/19 01:54:53;;;;;;;12.17;5.13;;;;;;;-1.63;92.24;99550.59;5979752;29;20098;-73
2023/01/19 01:57:51;;;;;;;13.60;5.32;;;;;;;-1.57;92.34;99560.63;5979066;29;20455;-74
2023/01/19 02:04:01;;;;;;;11.18;5.47;;;;;;;-1.53;92.06;99541.31;5964363;29;20047;-73
2023/01/19 02:13:25;;;;;;;7.85;3.95;;;;;;;-1.42;92.03;99541.44;5979207;29;20035;-74
2023/01/19 02:16:20;;;;;;;12.98;4.15;;;;;;;-1.39;91.22;99549.06;5979369;29;20035;-72
2023/01/19 02:19:20;;;;;;;11.23;4.73;;;;;;;-1.42;91.36;99532.81;5962438;29;20071;-73
2023/01/19 02:22:20;;;;;;;17.83;5.43;;;;;;;-1.47;91.94;99537.47;5978937;29;20407;-71
2023/01/19 02:25:17;;;;;;;10.05;4.47;;;;;;;-1.58;91.59;99535.56;5979404;29;20066;-71
2023/01/19 02:28:12;;;;;;;13.63;5.32;;;;;;;-1.50;92.31;99550.66;5962382;29;20039;-70
2023/01/19 02:31:09;;;;;;;19.13;4.97;;;;;;;-1.61;92.39;99530.56;5978663;29;20042;-75
2023/01/19 02:34:06;;;;;;;12.02;5.00;;;;;;;-1.38;92.66;99550.69;5978573;29;20039;-75
2023/01/19 02:37:12;;;;;;;10.13;4.40;;;;;;;-1.42;91.92;99525.84;5961975;29;20066;-72
2023/01/19 02:40:11;;;;;;;8.77;4.60;;;;;;;-1.39;91.51;99523.06;5979142;29;20072;-73
2023/01/19 02:43:07;;;;;;;13.15;5.50;;;;;;;-1.23;91.57;99534.13;5961411;29;20043;-72
2023/01/19 02:46:02;;;;;;;14.32;4.80;;;;;;;-1.36;91.25;99522.03;5961564;29;20467;-72
2023/01/19 02:48:58;;;;;;;16.00;5.80;;;;;;;-1.30;91.46;99537.19;5978342;29;20035;-74
2023/01/19 02:51:54;;;;;;;13.77;6.20;;;;;;;-1.38;92.11;99529.91;5978004;29;20031;-71
2023/01/19 02:55:07;;;;;;;6.03;2.65;;;;;;;-1.51;91.43;99539.44;5979092;29;20039;-72
2023/01/19 02:58:14;;;;;;;9.30;3.63;;;;;;;-1.47;92.42;99559.06;5978777;29;20049;-71
2023/01/19 03:01:19;;;;;;;6.88;3.00;;;;;;;-1.57;92.14;99533.78;5961360;29;20031;-74
2023/01/19 03:04:40;;;;;;;12.25;4.28;;;;;;;-1.63;92.43;99540.22;5977996;29;20047;-75
2023/01/19 03:07:45;;;;;;;8.75;4.18;;;;;;;-1.52;93.16;99537.75;5979084;29;20463;-71
2023/01/19 03:10:51;;;;;;;11.15;4.70;;;;;;;-1.59;93.12;99520.91;5961486;29;20031;-72
2023/01/19 03:13:57;;;;;;;11.85;5.18;;;;;;;-1.49;92.97;99527.16;5961011;29;20413;-72
2023/01/19 03:16:56;;;;;;;10.43;4.78;;;;;;;-1.49;92.80;99508.97;5961571;29;20614;-70
2023/01/19 03:19:53;;;;;;;12.98;5.15;;;;;;;-1.47;92.91;99527.88;5961304;29;20027;-71
2023/01/19 03:22:50;;;;;;;11.70;4.00;;;;;;;-1.48;92.48;99522.81;5978085;29;20035;-72
2023/01/19 03:25:47;;;;;;;9.43;4.72;;;;;;;-1.57;92.77;99511.25;5961717;29;20039;-71
2023/01/19 03:28:43;;;;;;;11.02;5.45;;;;;;;-1.52;93.25;99529.97;5961517;29;20039;-71
2023/01/19 03:31:39;;;;;;;11.40;5.55;;;;;;;-1.55;93.50;99517.16;5960666;29;20498;-74
2023/01/19 03:34:36;;;;;;;9.27;4.13;;;;;;;-1.46;93.49;99521.78;5961015;29;20177;-73
2023/01/19 03:37:36;;;;;;;8.68;4.80;;;;;;;-1.51;92.84;99520.41;5961212;29;20027;-72
2023/01/19 03:40:32;;;;;;;13.57;4.38;;;;;;;-1.65;93.20;99523.06;5978576;29;20046;-73
2023/01/19 03:43:28;;;;;;;6.50;3.40;;;;;;;-1.65;94.23;99530.84;5977943;29;20071;-75
2023/01/19 03:46:24;;;;;;;15.18;5.18;;;;;;;-1.75;93.80;99529.78;5960975;29;20086;-71
2023/01/19 03:49:19;;;;;;;13.00;5.22;;;;;;;-1.63;94.18;99540.22;5961340;29;20050;-71
2023/01/19 03:52:15;;;;;;;13.77;5.17;;;;;;;-1.69;94.49;99534.59;5977406;29;20039;-74
2023/01/19 03:55:12;;;;;;;11.55;4.80;;;;;;;-1.56;94.99;99543.25;5978538;29;20282;-71
2023/01/19 03:58:07;;;;;;;10.27;3.83;;;;;;;-1.56;94.93;99528.50;5980732;28;20118;-72
2023/01/19 04:01:03;;;;;;;12.77;4.73;;;;;;;-1.38;94.35;99535.09;5982067;29;20053;-73
2023/01/19 04:03:58;;;;;;;8.43;3.73;;;;;;;-1.22;94.33;99535.75;5981711;29;20368;-73
2023/01/19 04:06:53;;;;;;;13.97;5.47;;;;;;;-1.33;92.84;99517.44;5982099;29;20126;-73
2023/01/19 04:09:49;;;;;;;7.77;3.47;;;;;;;-1.28;93.24;99530.16;5982071;29;21017;-71
2023/01/19 04:12:44;;;;;;;16.77;6.47;;;;;;;-1.16;92.93;99534.53;5981695;29;20047;-72
2023/01/19 04:15:39;;;;;;;8.65;3.40;;;;;;;-1.20;92.99;99527.88;5981857;29;20067;-73
2023/01/19 04:18:35;;;;;;;9.93;4.13;;;;;;;-1.24;92.62;99518.59;5982281;29;20051;-72
2023/01/19 04:21:30;;;;;;;11.63;4.18;;;;;;;-1.14;92.80;99513.63;5981280;29;20111;-72
2023/01/19 04:24:26;;;;;;;15.57;4.73;;;;;;;-0.99;92.17;99536.00;5981596;29;20039;-75
2023/01/19 04:27:22;;;;;;;11.65;5.15;;;;;;;-1.04;92.30;99527.69;5981930;29;20023;-72
2023/01/19 04:30:17;;;;;;;9.20;4.55;;;;;;;-0.95;92.42;99524.47;5981591;29;20042;-72
2023/01/19 04:33:13;;;;;;;8.82;4.25;;;;;;;-0.86;91.90;99521.22;5980946;29;20043;-74
2023/01/19 04:36:08;;;;;;;12.33;4.40;;;;;;;-0.85;91.47;99515.09;5981057;29;20057;-73
2023/01/19 04:39:03;;;;;;;7.77;4.03;;;;;;;-0.93;91.81;99513.03;5981824;29;20039;-73
2023/01/19 04:41:59;;;;;;;11.88;3.92;;;;;;;-1.02;92.28;99508.44;5980469;29;20043;-73
2023/01/19 04:44:55;;;;;;;10.32;4.55;;;;;;;-1.01;92.74;99520.50;5981004;28;20035;-72
2023/01/19 04:47:50;;;;;;;13.10;5.47;;;;;;;-0.97;92.15;99534.13;5981228;29;20039;-72
2023/01/19 04:50:46;;;;;;;11.63;5.47;;;;;;;-0.91;92.58;99531.13;5981143;29;20039;-74
2023/01/19 04:53:41;;;;;;;9.25;5.32;;;;;;;-0.86;92.13;99534.25;5980698;29;20047;-71
2023/01/19 04:56:37;;;;;;;9.90;4.53;;;;;;;-0.79;91.45;99536.31;5981097;29;20460;-72
2023/01/19 04:59:32;;;;;;;11.93;3.65;;;;;;;-0.78;91.62;99529.34;5980749;29;20463;-71
2023/01/19 05:02:27;;;;;;;9.07;4.30;;;;;;;-0.82;91.06;99514.91;5980305;29;20122;-72
2023/01/19 05:05:23;;;;;;;10.50;4.73;;;;;;;-0.84;91.38;99509.78;5981122;29;20032;-73
2023/01/19 05:08:18;;;;;;;7.50;3.30;;;;;;;-0.82;91.57;99528.75;5981182;28;20368;-72
2023/01/19 05:11:13;;;;;;;9.73;3.90;;;;;;;-0.79;91.37;99527.69;5980774;29;20043;-72
2023/01/19 05:14:09;;;;;;;12.83;4.63;;;;;;;-0.74;91.64;99530.81;5980153;29;20035;-71
2023/01/19 05:17:05;;;;;;;8.80;4.13;;;;;;;-0.74;91.23;99546.44;5980727;29;20431;-73
2023/01/19 05:20:00;;;;;;;11.80;4.47;;;;;;;-0.76;91.29;99540.50;5980717;29;20031;-71
2023/01/19 05:22:56;;;;;;;11.75;4.35;;;;;;;-0.81;90.97;99516.53;5980275;29;20467;-70
2023/01/19 05:25:51;;;;;;;9.18;3.60;;;;;;;-0.64;90.88;99550.06;5980643;29;20043;-73
2023/01/19 05:28:47;;;;;;;12.17;5.93;;;;;;;-0.67;90.93;99542.47;5980382;29;20031;-73
2023/01/19 05:31:42;;;;;;;9.97;4.20;;;;;;;-0.70;91.35;99542.66;5979622;29;20390;-74
2023/01/19 05:34:37;;;;;;;7.87;3.50;;;;;;;-0.77;91.37;99531.03;5979732;29;20043;-71
2023/01/19 05:37:33;;;;;;;23.08;4.70;;;;;;;-0.80;91.54;99521.66;5980548;29;20050;-72
2023/01/19 05:40:28;;;;;;;9.07;3.40;;;;;;;-0.65;91.05;99537.97;5979992;29;20031;-74
2023/01/19 05:43:24;;;;;;;8.73;3.40;;;;;;;-0.70;91.66;99534.88;5979469;29;20050;-73
2023/01/19 05:46:19;;;;;;;8.48;3.88;;;;;;;-0.73;91.29;99528.09;5980254;28;20380;-73
2023/01/19 05:49:14;;;;;;;9.43;3.60;;;;;;;-0.90;92.08;99514.59;5979933;29;20039;-72
2023/01/19 05:52:10;;;;;;;12.50;3.87;;;;;;;-0.87;91.83;99522.19;5979448;29;20115;-72
2023/01/19 05:55:05;;;;;;;10.57;4.10;;;;;;;-0.83;92.16;99529.66;5979539;29;20371;-73
2023/01/19 05:58:01;;;;;;;10.77;3.95;;;;;;;-0.77;91.99;99531.88;5980116;29;20495;-74
2023/01/19 06:00:56;;;;;;;9.53;3.53;;;;;;;-0.70;92.30;99532.25;5980038;29;20035;-72
2023/01/19 06:03:51;;;;;;;8.27;4.10;;;;;;;-0.69;91.81;99523.53;5973796;28;20046;-73
2023/01/19 06:06:48;;;;;;;14.50;5.27;;;;;;;-0.70;91.72;99516.66;5980075;29;20372;-72
2023/01/19 06:09:43;;;;;;;8.15;4.07;;;;;;;-0.61;90.95;99526.44;5979642;29;20676;-73
2023/01/19 06:12:40;;;;;;;8.07;4.17;;;;;;;-0.62;91.60;99516.94;5979268;29;20035;-72
2023/01/19 06:15:36;;;;;;;8.10;4.10;;;;;;;-0.54;91.27;99527.66;5979134;29;20031;-73
2023/01/19 06:18:31;;;;;;;19.10;6.07;;;;;;;-0.44;91.05;99540.91;5979589;29;20470;-72
2023/01/19 06:21:27;;;;;;;6.80;3.90;;;;;;;-0.40;89.95;99529.31;5978855;28;20039;-72
2023/01/19 06:24:22;;;;;;;9.60;5.10;;;;;;;-0.43;89.72;99535.56;5978224;29;20588;-72
2023/01/19 06:27:18;;;;;;;9.93;4.65;;;;;;;-0.32;89.50;99533.06;5976756;28;20475;-72
2023/01/19 06:30:13;;;;;;;8.67;3.97;;;;;;;-0.37;89.67;99534.31;5976524;28;20039;-71
2023/01/19 06:33:08;;;;;;;13.95;4.90;;;;;;;-0.36;88.79;99539.44;5978943;28;20065;-73
2023/01/19 06:36:04;;;;;;;10.47;3.63;;;;;;;-0.30;90.29;99557.22;5978300;29;20042;-73
2023/01/19 06:39:03;;;;;;;9.90;4.68;;;;;;;-0.27;89.37;99562.22;5977410;29;20066;-71
2023/01/19 06:41:59;;;;;;;9.63;3.70;;;;;;;-0.31;89.47;99552.13;5977072;29;20075;-73
2023/01/19 06:44:54;;;;;;;8.77;4.77;;;;;;;-0.31;89.02;99539.94;5978722;28;20043;-71
2023/01/19 06:47:49;;;;;;;10.60;4.33;;;;;;;-0.22;89.64;99565.31;5978612;29;20043;-72
2023/01/19 06:50:46;;;;;;;11.23;4.07;;;;;;;-0.30;89.79;99556.41;5979093;29;20384;-72
2023/01/19 06:53:41;;;;;;;10.75;4.15;;;;;;;-0.21;89.79;99569.59;5978204;29;20039;-72
2023/01/19 06:56:36;;;;;;;11.40;4.47;;;;;;;-0.28;89.14;99560.56;5979272;29;20049;-71
2023/01/19 06:59:31;;;;;;;9.53;3.33;;;;;;;-0.17;89.92;99578.91;5978634;28;20035;-71
2023/01/19 07:02:27;;;;;;;7.80;3.97;;;;;;;-0.10;89.46;99574.06;5977256;29;20043;-71
2023/01/19 07:05:23;;;;;;;8.13;3.53;;;;;;;-0.10;89.37;99561.88;5978015;29;20426;-71
2023/01/19 07:08:18;;;;;;;12.95;4.53;;;;;;;-0.07;89.24;99563.44;5978665;28;20073;-72
2023/01/19 07:11:14;;;;;;;10.23;5.67;;;;;;;-0.04;88.62;99587.50;5978733;29;20035;-71
2023/01/19 07:14:09;;;;;;;11.02;4.80;;;;;;;-0.09;89.10;99571.38;5977980;29;20035;-71
2023/01/19 07:17:04;;;;;;;13.10;5.20;;;;;;;-0.27;88.51;99554.41;5978288;29;20514;-70
2023/01/19 07:20:00;;;;;;;10.27;3.53;;;;;;;-0.03;89.16;99586.56;5978602;28;20278;-70
2023/01/19 07:22:56;;;;;;;8.98;3.58;;;;;;;-0.01;88.76;99597.72;5978021;29;20037;-70
2023/01/19 07:25:51;;;;;;;7.28;4.22;;;;;;;0.05;88.72;99587.81;5978997;29;20066;-71
2023/01/19 07:28:47;;;;;;;12.40;3.70;;;;;;;0.03;88.24;99587.91;5978997;29;20047;-71
2023/01/19 07:31:42;;;;;;;12.68;4.70;;;;;;;0.04;88.94;99586.97;5977663;28;20039;-70
2023/01/19 07:34:37;;;;;;;10.13;4.70;;;;;;;0.03;88.16;99568.84;5981567;28;20046;-71
2023/01/19 07:37:33;;;;;;;8.63;4.03;;;;;;;0.10;87.33;99583.09;5982783;28;20364;-71
2023/01/19 07:40:28;;;;;;;13.83;5.83;;;;;;;0.16;88.13;99587.88;5982251;29;20035;-69
2023/01/19 07:43:23;;;;;;;12.13;4.50;;;;;;;0.15;87.95;99599.25;5981807;29;20074;-70
2023/01/19 07:46:19;;;;;;;10.73;4.20;;;;;;;0.11;88.33;99600.41;5982715;28;20051;-71
2023/01/19 07:49:14;;;;;;;7.63;3.90;;;;;;;0.10;88.50;99606.56;5981647;29;20555;-70
2023/01/19 07:52:09;;;;;;;10.40;5.63;;;;;;;0.05;88.71;99603.44;5976186;29;20041;-70
2023/01/19 07:55:05;;;;;;;11.23;5.23;;;;;;;-0.02;88.31;99596.06;5982031;29;20046;-70
2023/01/19 07:58:02;;;;;;;10.23;4.72;;;;;;;0.07;89.09;99618.03;5981756;29;20483;-70
2023/01/19 08:00:58;;;;;;;11.52;4.88;;;;;;;-0.03;88.86;99604.78;5982388;29;20043;-71
2023/01/19 08:03:53;;;;;;;12.83;5.63;;;;;;;0.08;88.57;99613.66;5981066;29;20050;-71
2023/01/19 08:06:48;;;;;;;7.37;3.93;;;;;;;0.14;88.47;99619.25;5978586;28;20031;-70
2023/01/19 08:09:43;;;;;;;12.10;5.10;;;;;;;0.20;87.24;99616.22;5982707;29;20314;-71
2023/01/19 08:12:40;;;;;;;12.37;3.63;;;;;;;0.22;87.25;99618.75;5980727;29;20043;-70
2023/01/19 08:15:36;;;;;;;12.05;4.45;;;;;;;0.14;87.01;99608.00;5982055;29;20043;-71
2023/01/19 08:18:32;;;;;;;10.55;5.20;;;;;;;0.09;87.19;99599.66;5982394;29;20039;-70
2023/01/19 08:21:27;;;;;;;8.10;3.08;;;;;;;0.08;87.99;99598.03;5981956;29;20067;-71
2023/01/19 08:24:27;;;;;;;11.73;5.43;;;;;;;0.14;87.64;99621.03;5980407;29;20098;-70
2023/01/19 08:27:22;;;;;;;11.20;5.07;;;;;;;-0.07;88.18;99598.16;5981663;28;20047;-71
2023/01/19 08:30:17;;;;;;;9.83;5.97;;;;;;;0.12;88.79;99612.47;5981723;29;20039;-71
2023/01/19 08:33:13;;;;;;;10.37;4.43;;;;;;;0.18;87.91;99599.03;5981214;29;20062;-72
2023/01/19 08:36:08;;;;;;;11.07;4.67;;;;;;;0.36;86.90;99602.94;5981834;29;20035;-73
2023/01/19 08:39:04;;;;;;;15.93;4.47;;;;;;;0.50;86.14;99615.81;5981967;29;20027;-73
2023/01/19 08:41:59;;;;;;;7.97;4.35;;;;;;;0.57;85.67;99602.22;5980694;29;20046;-74
2023/01/19 08:44:54;;;;;;;10.80;5.10;;;;;;;0.59;85.22;99591.69;5981392;28;20035;-73
2023/01/19 08:47:50;;;;;;;7.37;3.60;;;;;;;0.73;84.84;99601.13;5981796;29;20095;-75
2023/01/19 08:50:46;;;;;;;10.40;3.67;;;;;;;0.83;84.74;99605.56;5982285;29;20043;-74
2023/01/19 08:53:42;;;;;;;8.95;3.88;;;;;;;1.00;84.58;99612.16;5982421;28;20467;-74
2023/01/19 08:56:37;;;;;;;10.80;5.57;;;;;;;1.14;83.92;99610.19;5982134;29;20112;-76
2023/01/19 08:59:33;;;;;;;9.33;5.40;;;;;;;1.20;83.31;99604.50;5982609;29;20142;-73
2023/01/19 09:02:28;;;;;;;6.83;3.13;;;;;;;1.32;82.95;99607.16;5981974;29;20364;-74
2023/01/19 09:05:23;;;;;;;12.07;5.30;;;;;;;1.08;82.98;99609.81;5981590;28;20028;-74
2023/01/19 09:08:19;;;;;;;9.30;5.03;;;;;;;1.21;83.04;99602.72;5982018;29;20043;-74
2023/01/19 09:11:15;;;;;;;8.13;3.90;;;;;;;1.56;81.80;99607.91;5983210;29;20039;-73
2023/01/19 09:14:10;;;;;;;8.25;4.35;;;;;;;1.73;80.73;99633.59;5983743;28;20062;-75
2023/01/19 09:17:05;;;;;;;9.90;3.70;;;;;;;1.69;80.80;99629.53;5983203;29;20470;-76
2023/01/19 09:20:01;;;;;;;6.27;3.10;;;;;;;1.62;80.74;99639.63;5965126;29;20039;-75
2023/01/19 09:22:57;;;;;;;8.98;4.43;;;;;;;1.46;81.77;99633.06;5981705;28;20033;-76
2023/01/19 09:25:57;;;;;;;7.85;4.03;;;;;;;1.38;82.38;99631.03;5981616;29;20023;-74
2023/01/19 09:28:52;;;;;;;7.85;4.25;;;;;;;1.27;82.59;99625.78;5981572;29;20043;-76
2023/01/19 09:31:47;;;;;;;11.77;4.77;;;;;;;1.23;82.86;99647.00;5980420;29;20117;-76
2023/01/19 09:34:43;;;;;;;9.17;4.10;;;;;;;1.13;83.78;99642.47;5981704;29;20031;-77
2023/01/19 09:37:38;;;;;;;9.80;4.55;;;;;;;0.98;83.72;99638.34;5981124;29;20089;-77
2023/01/19 09:40:36;;;;;;;8.30;4.57;;;;;;;0.99;84.91;99644.41;5980557;29;20036;-75
2023/01/19 09:43:40;;;;;;;7.00;3.95;;;;;;;1.27;84.45;99666.72;5980164;29;20387;-76
2023/01/19 09:46:38;;;;;;;9.65;4.97;;;;;;;1.62;83.55;99660.53;5980154;28;20031;-74
2023/01/19 09:49:38;;;;;;;14.80;4.43;;;;;;;1.56;82.06;99639.25;5980498;29;20523;-74
2023/01/19 09:52:36;;;;;;;9.38;4.45;;;;;;;1.65;82.40;99654.25;5962100;29;20031;-75
2023/01/19 09:55:31;;;;;;;8.38;4.18;;;;;;;1.68;82.25;99659.25;5979435;28;20595;-76
2023/01/19 09:58:27;;;;;;;12.50;4.15;;;;;;;1.52;82.47;99649.09;5963111;29;20034;-75
2023/01/19 10:01:31;;;;;;;10.82;4.35;;;;;;;1.64;83.48;99673.47;5979528;29;20031;-73
2023/01/19 10:04:40;;;;;;;6.90;3.72;;;;;;;1.77;82.95;99658.53;5962433;29;20078;-75
2023/01/19 10:08:11;;;;;;;9.45;3.40;;;;;;;1.91;82.92;99671.38;5979789;29;20139;-73
2023/01/19 10:11:29;;;;;;;8.43;4.20;;;;;;;1.71;83.20;99664.25;5943915;29;20043;-73
2023/01/19 10:14:42;;;;;;;7.22;3.28;;;;;;;1.76;82.82;99672.56;5962319;29;20039;-72
2023/01/19 10:17:47;;;;;;;8.95;3.85;;;;;;;1.73;83.52;99678.00;5962606;29;20054;-73
2023/01/19 10:20:48;;;;;;;8.73;3.65;;;;;;;1.69;83.42;99673.94;5960247;29;20124;-74
2023/01/19 10:23:53;;;;;;;9.15;3.78;;;;;;;1.74;83.71;99674.44;5978980;29;20114;-72
2023/01/19 10:26:53;;;;;;;6.93;3.53;;;;;;;1.78;83.37;99675.88;5962452;29;20033;-75
2023/01/19 10:29:48;;;;;;;7.13;3.75;;;;;;;1.75;83.61;99669.09;5979754;29;20043;-73
2023/01/19 10:32:44;;;;;;;6.40;2.97;;;;;;;1.63;83.83;99663.97;5961397;29;20376;-73
2023/01/19 10:35:39;;;;;;;7.63;3.45;;;;;;;1.60;84.58;99662.41;5979488;29;20023;-74
2023/01/19 10:38:35;;;;;;;6.78;3.60;;;;;;;1.71;84.47;99677.31;5978808;28;20047;-74
2023/01/19 10:41:39;;;;;;;8.60;3.67;;;;;;;1.81;84.39;99670.41;5979154;29;20085;-74
2023/01/19 10:44:36;;;;;;;8.68;3.30;;;;;;;1.76;84.19;99660.31;5961076;28;20494;-72
2023/01/19 10:47:35;;;;;;;7.53;3.40;;;;;;;1.92;83.93;99670.44;5978511;29;20043;-73
2023/01/19 10:50:36;;;;;;;7.40;3.40;;;;;;;2.04;84.76;99673.91;5978427;29;20039;-72
2023/01/19 10:53:31;;;;;;;;;;;;;;;2.09;84.93;99680.41;5977679;29;20495;-73
2023/01/19 10:56:30;;;;;;;7.13;3.33;;;;;;;2.02;84.30;99660.94;5961337;29;19961;-73
2023/01/19 10:59:49;;;;;;;9.00;4.03;;;;;;;2.26;85.24;99674.72;5972095;29;20039;-73
2023/01/19 11:02:48;;;;;;;8.68;3.25;;;;;;;2.21;84.63;99679.47;5975560;29;20119;-73
2023/01/19 11:05:44;;;;;;;8.10;3.30;;;;;;;2.11;85.02;99675.91;5978326;28;20475;-72
2023/01/19 11:08:39;;;;;;;8.13;4.07;;;;;;;2.18;86.48;99686.72;5983940;29;20062;-72
2023/01/19 11:11:41;;;;;;;6.57;3.20;;;;;;;2.09;86.61;99685.66;5983225;28;20050;-71
2023/01/19 11:14:37;;;;;;;6.28;3.35;;;;;;;1.84;88.01;99679.81;5966224;29;20043;-72
2023/01/19 11:17:32;;;;;;;8.70;3.22;;;;;;;1.63;89.62;99663.97;5966640;29;20122;-71
2023/01/19 11:20:48;;;;;;;6.00;3.03;;;;;;;1.75;90.19;99681.34;5965862;29;20098;-74
2023/01/19 11:23:52;;;;;;;7.00;3.10;;;;;;;1.74;90.42;99680.50;5982734;29;20321;-73
2023/01/19 11:26:56;;;;;;;6.32;3.45;;;;;;;1.72;90.27;99671.09;5983148;28;20059;-73
2023/01/19 11:30:00;;;;;;;6.32;3.15;;;;;;;1.84;90.32;99675.41;5956661;29;20043;-73
2023/01/19 11:32:56;;;;;;;6.35;3.22;;;;;;;1.85;89.94;99684.09;5964415;29;20035;-74
2023/01/19 11:36:01;;;;;;;7.20;3.78;;;;;;;1.84;89.48;99679.81;5982348;29;20034;-72
2023/01/19 11:38:59;;;;;;;7.00;3.53;;;;;;;1.87;89.14;99685.66;5983155;29;20065;-72
2023/01/19 11:42:00;;;;;;;7.25;3.30;;;;;;;1.91;88.80;99692.28;5965203;29;20467;-72
2023/01/19 11:45:06;;;;;;;6.20;2.85;;;;;;;1.97;89.17;99675.31;5965989;28;20615;-73
2023/01/19 11:48:03;;;;;;;10.77;3.42;;;;;;;1.90;88.81;99674.13;5981997;29;20207;-71
2023/01/19 11:51:00;;;;;;;6.97;3.65;;;;;;;1.89;89.21;99688.97;5965730;29;20086;-71
2023/01/19 11:53:55;;;;;;;6.93;3.03;;;;;;;1.86;89.78;99691.81;5964906;29;20047;-72
2023/01/19 11:56:51;;;;;;;6.38;3.10;;;;;;;1.89;90.36;99695.97;5982878;29;20050;-71
2023/01/19 11:59:47;;;;;;;5.22;2.80;;;;;;;1.87;90.61;99680.41;5982476;29;20554;-72
2023/01/19 12:02:43;;;;;;;4.57;2.53;;;;;;;1.99;90.91;99699.53;5982070;29;20039;-71
2023/01/19 12:05:42;;;;;;;4.35;2.53;;;;;;;1.96;91.08;99692.75;5965660;29;20627;-72
2023/01/19 12:08:44;;;;;;;4.30;2.50;;;;;;;1.87;90.57;99688.25;5970266;29;20039;-70
2023/01/19 12:11:43;;;;;;;6.10;2.85;;;;;;;1.84;92.11;99698.94;5965321;29;20035;-72
2023/01/19 12:14:51;;;;;;;6.10;3.03;;;;;;;1.85;92.09;99697.97;5981792;29;20057;-71
2023/01/19 12:17:48;;;;;;;4.70;2.70;;;;;;;2.02;91.45;99713.22;5964516;28;20028;-73
2023/01/19 12:20:54;;;;;;;4.25;2.17;;;;;;;2.04;91.98;99707.88;5964860;29;20110;-72
2023/01/19 12:23:55;;;;;;;4.20;2.63;;;;;;;2.12;91.76;99718.59;5981601;29;20027;-71
2023/01/19 12:26:54;;;;;;;4.90;2.50;;;;;;;2.03;92.04;99711.44;5982050;29;20039;-70
2023/01/19 12:29:52;;;;;;;6.20;2.70;;;;;;;1.97;91.90;99710.13;5982129;29;20038;-72
2023/01/19 12:32:50;;;;;;;5.90;2.47;;;;;;;2.01;92.28;99714.16;5964189;29;20042;-72
2023/01/19 12:35:58;;;;;;;5.22;2.70;;;;;;;1.95;91.62;99704.19;5964881;29;20126;-72
2023/01/19 12:39:19;;;;;;;5.07;2.65;;;;;;;2.14;92.70;99716.69;5982122;29;20114;-72
2023/01/19 12:42:16;;;;;;;4.55;2.30;;;;;;;2.05;92.87;99715.59;5980572;29;20039;-72
2023/01/19 12:45:24;;;;;;;3.90;2.35;;;;;;;2.03;93.16;99724.50;5981670;28;20035;-71
2023/01/19 12:48:24;;;;;;;5.13;2.33;;;;;;;1.83;95.68;99736.47;5981866;29;20114;-70
2023/01/19 12:51:25;;;;;;;4.85;2.80;;;;;;;1.67;98.02;99742.00;5979913;29;20031;-71
2023/01/19 12:54:24;;;;;;;;;;;;;;;1.63;98.97;99739.75;5972374;29;20479;-70
2023/01/19 12:57:28;;;;;;;6.45;2.97;;;;;;;1.54;100.00;99740.41;5964154;29;19965;-71
2023/01/19 13:00:23;;;;;;;8.57;2.90;;;;;;;1.46;100.00;99747.97;5981339;29;20027;-70
2023/01/19 13:03:18;;;;;;;6.45;3.35;;;;;;;1.41;100.00;99739.66;5980311;29;20031;-70
2023/01/19 13:06:13;;;;;;;9.93;5.30;;;;;;;1.31;100.00;99744.69;5981346;29;20042;-69
2023/01/19 13:09:29;;;;;;;6.20;3.03;;;;;;;1.10;100.00;99744.50;5981468;29;20039;-70
2023/01/19 13:12:25;;;;;;;9.18;3.42;;;;;;;1.11;100.00;99753.97;5963194;29;20133;-69
2023/01/19 13:15:31;;;;;;;5.77;3.33;;;;;;;0.95;100.00;99740.34;5980364;29;20043;-71
2023/01/19 13:18:29;;;;;;;9.68;3.00;;;;;;;0.84;100.00;99750.75;5964045;29;20037;-69
2023/01/19 13:21:43;;;;;;;7.97;3.10;;;;;;;0.77;100.00;99759.94;5963213;29;20031;-71
2023/01/19 13:25:06;;;;;;;5.95;2.88;;;;;;;0.59;100.00;99763.84;5963017;29;20035;-71
2023/01/19 13:28:07;;;;;;;8.20;3.17;;;;;;;0.47;100.00;99767.28;5945194;29;20043;-69
2023/01/19 13:31:03;;;;;;;6.68;3.58;;;;;;;0.47;100.00;99772.50;5963162;29;20098;-71
2023/01/19 13:34:00;;;;;;;10.07;4.95;;;;;;;0.41;100.00;99768.53;5979489;28;20035;-70
2023/01/19 13:36:58;;;;;;;5.47;3.03;;;;;;;0.48;100.00;99758.53;5962907;29;20043;-69
2023/01/19 13:39:53;;;;;;;7.55;3.28;;;;;;;0.56;100.00;99782.28;5980148;29;20376;-70
2023/01/19 13:42:50;;;;;;;5.22;2.47;;;;;;;0.60;100.00;99788.94;5962632;29;20098;-70
2023/01/19 13:45:48;;;;;;;6.22;3.55;;;;;;;0.54;100.00;99790.22;5963090;29;20063;-71
2023/01/19 13:48:54;;;;;;;6.10;3.03;;;;;;;0.51;100.00;99780.00;5980099;29;20031;-71
2023/01/19 13:52:23;;;;;;;5.75;2.95;;;;;;;0.52;100.00;99801.69;5979671;29;20032;-71
2023/01/19 13:55:19;;;;;;;7.20;2.97;;;;;;;0.44;100.00;99801.38;5980050;28;20086;-71
2023/01/19 13:58:22;;;;;;;11.93;4.25;;;;;;;0.40;100.00;99803.38;5980082;29;20050;-69
2023/01/19 14:01:20;;;;;;;7.72;3.95;;;;;;;0.34;100.00;99810.78;5979723;28;20039;-71
2023/01/19 14:04:32;;;;;;;12.88;4.28;;;;;;;0.13;100.00;99800.03;5979235;28;20043;-70
2023/01/19 14:07:27;;;;;;;9.65;4.57;;;;;;;0.06;100.00;99803.13;5979372;29;20497;-71
2023/01/19 14:10:23;;;;;;;7.83;4.13;;;;;;;0.12;100.00;99819.19;5978948;29;20039;-70
2023/01/19 14:13:24;;;;;;;11.03;4.47;;;;;;;0.18;100.00;99825.78;5977888;29;20031;-72
2023/01/19 14:16:19;;;;;;;9.32;4.00;;;;;;;0.17;100.00;99817.13;5978629;29;20514;-71
2023/01/19 14:19:14;;;;;;;9.40;4.10;;;;;;;0.13;100.00;99805.25;5962297;28;20051;-71